createdAt,value
2023-05-12T00:00:39.063Z,13.94
2023-05-12T00:03:11.581Z,13.91
2023-05-12T00:05:41.790Z,13.92
2023-05-12T00:08:12.056Z,13.92
2023-05-12T00:10:42.293Z,13.96
2023-05-12T00:13:15.254Z,14.01
2023-05-12T00:15:45.529Z,14.04
2023-05-12T00:18:16.705Z,14.05
2023-05-12T00:20:50.268Z,14.05
2023-05-12T00:23:20.579Z,14.10
2023-05-12T00:25:50.881Z,14.11
2023-05-12T00:28:24.015Z,14.13
2023-05-12T00:30:55.366Z,14.13
2023-05-12T00:33:25.561Z,14.10
2023-05-12T00:35:55.730Z,14.06
2023-05-12T00:38:25.945Z,14.02
2023-05-12T00:40:56.307Z,14.11
2023-05-12T00:43:29.048Z,14.09
2023-05-12T00:46:00.215Z,14.04
2023-05-12T00:48:31.813Z,14.05
2023-05-12T00:51:04.239Z,14.05
2023-05-12T00:53:47.801Z,14.05
2023-05-12T00:56:20.372Z,13.97
2023-05-12T00:58:53.163Z,14.00
2023-05-12T01:01:23.988Z,14.09
2023-05-12T01:03:57.205Z,14.08
2023-05-12T01:06:32.920Z,14.08
2023-05-12T01:09:03.811Z,14.03
2023-05-12T01:11:34.228Z,14.05
2023-05-12T01:14:07.334Z,14.11
2023-05-12T01:16:43.151Z,13.75
2023-05-12T01:19:26.840Z,14.00
2023-05-12T01:21:57.282Z,14.00
2023-05-12T01:24:30.520Z,14.08
2023-05-12T01:27:04.098Z,14.05
2023-05-12T01:29:35.459Z,14.01
2023-05-12T01:32:06.249Z,14.06
2023-05-12T01:34:37.668Z,14.09
2023-05-12T01:37:10.708Z,14.12
2023-05-12T01:39:41.516Z,14.14
2023-05-12T01:42:18.311Z,14.19
2023-05-12T01:44:48.682Z,14.13
2023-05-12T01:47:18.946Z,14.09
2023-05-12T01:49:56.396Z,14.05
2023-05-12T01:52:26.683Z,14.15
2023-05-12T01:54:57.425Z,14.14
2023-05-12T01:57:33.796Z,14.15
2023-05-12T02:00:05.376Z,14.17
2023-05-12T02:02:43.581Z,14.12
2023-05-12T02:05:18.046Z,14.18
2023-05-12T02:07:51.711Z,14.13
2023-05-12T02:10:22.677Z,14.00
2023-05-12T02:12:56.019Z,13.99
2023-05-12T02:15:27.603Z,14.08
2023-05-12T02:17:59.622Z,14.17
2023-05-12T02:20:30.624Z,14.03
2023-05-12T02:23:01.224Z,14.13
2023-05-12T02:25:33.481Z,13.97
2023-05-12T02:28:09.156Z,14.11
2023-05-12T02:30:39.342Z,14.06
2023-05-12T02:33:09.602Z,14.01
2023-05-12T02:35:39.875Z,13.87
2023-05-12T02:38:10.473Z,13.96
2023-05-12T02:40:41.463Z,14.04
2023-05-12T02:43:16.746Z,14.07
2023-05-12T02:45:47.142Z,13.94
2023-05-12T02:48:17.665Z,14.05
2023-05-12T02:50:47.879Z,14.07
2023-05-12T02:53:18.858Z,14.02
2023-05-12T02:55:49.091Z,13.91
2023-05-12T02:58:25.400Z,14.05
2023-05-12T03:01:06.637Z,14.02
2023-05-12T03:03:41.099Z,13.99
2023-05-12T03:06:12.572Z,14.04
2023-05-12T03:08:42.866Z,13.96
2023-05-12T03:11:13.256Z,13.97
2023-05-12T03:13:46.705Z,13.99
2023-05-12T03:16:19.904Z,13.96
2023-05-12T03:18:51.259Z,13.67
2023-05-12T03:21:21.636Z,13.94
2023-05-12T03:23:53.007Z,13.95
2023-05-12T03:26:23.199Z,13.96
2023-05-12T03:28:56.263Z,13.96
2023-05-12T03:31:27.262Z,13.96
2023-05-12T03:33:57.503Z,14.00
2023-05-12T03:36:27.924Z,14.01
2023-05-12T03:39:02.559Z,13.99
2023-05-12T03:41:32.977Z,14.01
2023-05-12T03:44:05.874Z,14.03
2023-05-12T03:46:36.166Z,14.01
2023-05-12T03:49:06.790Z,14.07
2023-05-12T03:51:37.039Z,14.08
2023-05-12T03:54:08.008Z,14.13
2023-05-12T03:56:38.335Z,14.13
2023-05-12T03:59:13.325Z,14.10
2023-05-12T04:01:43.855Z,14.13
2023-05-12T04:04:14.247Z,14.13
2023-05-12T04:06:44.550Z,14.15
2023-05-12T04:09:15.111Z,14.15
2023-05-12T04:11:45.367Z,14.05
2023-05-12T04:14:18.527Z,14.06
2023-05-12T04:16:48.911Z,13.95
2023-05-12T04:19:19.149Z,14.18
2023-05-12T04:21:49.975Z,14.15
2023-05-12T04:24:20.177Z,14.18
2023-05-12T04:26:50.613Z,14.23
2023-05-12T04:29:23.503Z,14.06
2023-05-12T04:31:54.398Z,14.17
2023-05-12T04:34:26.455Z,14.13
2023-05-12T04:36:56.902Z,14.18
2023-05-12T04:39:27.044Z,14.20
2023-05-12T04:41:57.838Z,14.27
2023-05-12T04:44:31.092Z,14.27
2023-05-12T04:47:01.410Z,14.27
2023-05-12T04:49:33.052Z,14.19
2023-05-12T04:52:04.264Z,14.27
2023-05-12T04:54:35.250Z,14.35
2023-05-12T04:57:05.445Z,14.35
2023-05-12T04:59:41.902Z,14.32
2023-05-12T05:02:12.371Z,14.29
2023-05-12T05:04:42.757Z,14.23
2023-05-12T05:07:13.156Z,14.42
2023-05-12T05:09:43.425Z,14.41
2023-05-12T05:12:13.771Z,14.49
2023-05-12T05:14:49.232Z,14.36
2023-05-12T05:17:21.012Z,14.36
2023-05-12T05:19:58.426Z,14.44
2023-05-12T05:22:33.250Z,14.46
2023-05-12T05:25:04.122Z,14.48
2023-05-12T05:27:36.806Z,14.49
2023-05-12T05:30:11.153Z,14.50
2023-05-12T05:32:45.815Z,14.43
2023-05-12T05:35:17.030Z,14.51
2023-05-12T05:37:51.146Z,14.61
2023-05-12T05:40:22.266Z,14.60
2023-05-12T05:42:52.280Z,14.64
2023-05-12T05:45:27.015Z,14.59
2023-05-12T05:47:58.762Z,14.66
2023-05-12T05:50:32.114Z,14.65
2023-05-12T05:53:02.397Z,14.58
2023-05-12T05:55:32.837Z,14.55
2023-05-12T05:58:03.719Z,14.67
2023-05-12T06:00:46.157Z,14.58
2023-05-12T06:03:19.793Z,14.68
2023-05-12T06:05:50.809Z,14.71
2023-05-12T06:08:21.036Z,14.69
2023-05-12T06:10:53.503Z,14.74
2023-05-12T06:13:24.074Z,14.70
2023-05-12T06:15:56.794Z,14.63
2023-05-12T06:18:29.337Z,14.62
2023-05-12T06:21:00.390Z,14.69
2023-05-12T06:23:30.859Z,14.55
2023-05-12T06:26:01.119Z,14.70
2023-05-12T06:28:31.760Z,14.68
2023-05-12T06:31:04.805Z,14.68
2023-05-12T06:33:35.140Z,14.69
2023-05-12T06:36:05.444Z,14.61
2023-05-12T06:38:36.462Z,14.66
2023-05-12T06:41:06.896Z,14.62
2023-05-12T06:43:37.205Z,14.69
2023-05-12T06:46:12.010Z,14.52
2023-05-12T06:48:42.299Z,14.60
2023-05-12T06:51:13.454Z,14.58
2023-05-12T06:53:43.978Z,14.43
2023-05-12T06:56:17.259Z,14.44
2023-05-12T06:58:48.323Z,14.43
2023-05-12T07:01:21.379Z,14.43
2023-05-12T07:03:52.670Z,14.40
2023-05-12T07:06:22.898Z,14.25
2023-05-12T07:08:53.602Z,14.10
2023-05-12T07:11:23.997Z,14.13
2023-05-12T07:13:54.536Z,14.11
2023-05-12T07:16:30.238Z,14.13
2023-05-12T07:19:00.542Z,14.04
2023-05-12T07:21:31.001Z,13.99
2023-05-12T07:24:01.327Z,13.82
2023-05-12T07:26:31.854Z,13.83
2023-05-12T07:29:04.273Z,13.71
2023-05-12T07:31:38.871Z,13.58
2023-05-12T07:34:09.154Z,13.59
2023-05-12T07:36:39.398Z,13.56
2023-05-12T07:39:09.803Z,13.56
2023-05-12T07:41:40.008Z,13.42
2023-05-12T07:44:10.334Z,13.40
2023-05-12T07:46:43.253Z,13.39
2023-05-12T07:49:13.498Z,13.24
2023-05-12T07:51:43.704Z,13.31
2023-05-12T07:54:14.387Z,13.22
2023-05-12T07:56:44.657Z,13.21
2023-05-12T07:59:14.857Z,12.82
2023-05-12T08:01:47.728Z,13.06
2023-05-12T08:04:18.087Z,12.91
2023-05-12T08:06:48.364Z,12.98
2023-05-12T08:09:18.677Z,12.72
2023-05-12T08:11:51.609Z,12.92
2023-05-12T08:14:23.051Z,12.94
2023-05-12T08:16:58.207Z,12.94
2023-05-12T08:19:28.466Z,12.90
2023-05-12T08:21:58.677Z,12.94
2023-05-12T08:24:29.255Z,12.89
2023-05-12T08:26:59.666Z,12.90
2023-05-12T08:29:30.058Z,12.85
2023-05-12T08:32:05.417Z,12.89
2023-05-12T08:34:36.357Z,12.72
2023-05-12T08:37:09.767Z,12.92
2023-05-12T08:39:40.252Z,12.92
2023-05-12T08:42:21.438Z,12.88
2023-05-12T08:44:52.393Z,12.85
2023-05-12T08:47:27.232Z,12.83
2023-05-12T08:50:03.497Z,12.70
2023-05-12T08:52:36.767Z,12.73
2023-05-12T08:55:08.386Z,12.55
2023-05-12T08:57:40.097Z,12.55
2023-05-12T09:00:11.970Z,12.59
2023-05-12T09:02:53.173Z,12.52
2023-05-12T09:05:24.827Z,12.57
2023-05-12T09:07:57.859Z,12.66
2023-05-12T09:10:34.542Z,12.67
2023-05-12T09:13:07.763Z,12.88
2023-05-12T09:15:42.852Z,12.99
2023-05-12T09:18:18.484Z,13.14
2023-05-12T09:20:48.747Z,13.25
2023-05-12T09:23:20.408Z,13.41
2023-05-12T09:26:01.470Z,13.59
2023-05-12T09:28:39.890Z,13.72
2023-05-12T09:31:20.617Z,13.86
2023-05-12T09:33:56.766Z,13.92
2023-05-12T09:36:28.726Z,14.04
2023-05-12T09:39:04.949Z,14.16
2023-05-12T09:41:38.048Z,14.12
2023-05-12T09:44:09.429Z,14.23
2023-05-12T09:46:40.093Z,14.20
2023-05-12T09:49:13.345Z,14.28
2023-05-12T09:51:44.259Z,14.34
2023-05-12T09:54:14.566Z,14.45
2023-05-12T09:56:45.144Z,14.58
2023-05-12T09:59:17.074Z,14.74
2023-05-12T10:01:47.992Z,14.94
2023-05-12T10:04:21.229Z,15.04
2023-05-12T10:06:52.374Z,15.24
2023-05-12T10:09:23.783Z,15.39
2023-05-12T10:11:57.375Z,15.50
2023-05-12T10:14:27.900Z,15.79
2023-05-12T10:16:59.058Z,15.94
2023-05-12T10:19:33.228Z,16.10
2023-05-12T10:22:05.227Z,16.06
2023-05-12T10:24:37.485Z,15.96
2023-05-12T10:27:09.049Z,16.00
2023-05-12T10:29:42.038Z,16.34
2023-05-12T10:32:12.756Z,16.44
2023-05-12T10:34:46.060Z,16.44
2023-05-12T10:37:17.055Z,16.50
2023-05-12T10:39:50.574Z,16.65
2023-05-12T10:42:26.144Z,16.63
2023-05-12T10:44:59.661Z,16.68
2023-05-12T10:47:41.954Z,16.61
2023-05-12T10:50:16.818Z,16.65
2023-05-12T10:52:57.235Z,16.54
2023-05-12T10:55:36.242Z,16.64
2023-05-12T10:58:13.230Z,16.69
2023-05-12T11:00:48.783Z,16.65
2023-05-12T11:03:22.151Z,16.60
2023-05-12T11:06:05.595Z,16.30
2023-05-12T11:08:37.894Z,16.30
2023-05-12T11:11:09.035Z,16.29
2023-05-12T11:13:39.042Z,16.24
2023-05-12T11:16:09.840Z,16.31
2023-05-12T11:18:40.059Z,16.28
2023-05-12T11:21:15.941Z,16.24
2023-05-12T11:23:46.161Z,16.23
2023-05-12T11:26:21.313Z,16.23
2023-05-12T11:28:54.277Z,16.15
2023-05-12T11:31:25.726Z,16.02
2023-05-12T11:34:12.727Z,15.91
2023-05-12T11:36:47.614Z,15.96
2023-05-12T11:39:21.082Z,15.97
2023-05-12T11:41:59.360Z,16.14
2023-05-12T11:44:36.130Z,16.10
2023-05-12T11:47:16.941Z,16.22
2023-05-12T11:49:52.338Z,16.05
2023-05-12T11:52:26.751Z,16.27
2023-05-12T11:55:01.121Z,16.33
2023-05-12T11:57:32.667Z,16.43
2023-05-12T12:00:07.219Z,16.42
2023-05-12T12:02:40.128Z,16.35
2023-05-12T12:05:21.425Z,16.58
2023-05-12T12:07:54.624Z,16.66
2023-05-12T12:10:27.135Z,16.65
2023-05-12T12:12:57.407Z,16.65
2023-05-12T12:15:27.645Z,16.79
2023-05-12T12:17:57.861Z,16.77
2023-05-12T12:20:28.442Z,16.90
2023-05-12T12:23:01.346Z,16.94
2023-05-12T12:25:34.519Z,16.99
2023-05-12T12:28:04.662Z,16.98
2023-05-12T12:30:34.980Z,16.94
2023-05-12T12:33:10.323Z,16.84
2023-05-12T12:35:40.794Z,16.79
2023-05-12T12:38:13.775Z,16.76
2023-05-12T12:40:43.987Z,16.61
2023-05-12T12:43:14.191Z,16.72
2023-05-12T12:45:44.378Z,16.72
2023-05-12T12:48:14.916Z,16.71
2023-05-12T12:50:45.328Z,16.68
2023-05-12T12:53:20.584Z,16.48
2023-05-12T12:55:52.084Z,16.64
2023-05-12T12:58:22.935Z,16.70
2023-05-12T13:00:53.731Z,16.70
2023-05-12T13:03:24.780Z,16.56
2023-05-12T13:05:54.703Z,16.63
2023-05-12T13:08:27.785Z,16.52
2023-05-12T13:10:58.526Z,16.42
2023-05-12T13:13:28.799Z,16.28
2023-05-12T13:15:58.924Z,16.06
2023-05-12T13:18:29.189Z,16.16
2023-05-12T13:20:59.551Z,16.10
2023-05-12T13:23:33.296Z,15.87
2023-05-12T13:26:06.036Z,15.84
2023-05-12T13:28:36.556Z,15.75
2023-05-12T13:31:07.042Z,15.70
2023-05-12T13:33:37.421Z,15.63
2023-05-12T13:36:08.151Z,15.60
2023-05-12T13:38:41.330Z,15.59
2023-05-12T13:41:13.653Z,15.58
2023-05-12T13:43:43.972Z,15.63
2023-05-12T13:46:14.217Z,15.62
2023-05-12T13:48:44.410Z,15.64
2023-05-12T13:51:14.731Z,15.68
2023-05-12T13:53:51.531Z,15.55
2023-05-12T13:56:22.180Z,15.51
2023-05-12T13:58:52.632Z,15.53
2023-05-12T14:01:23.240Z,15.45
2023-05-12T14:03:53.725Z,15.59
2023-05-12T14:06:24.060Z,15.49
2023-05-12T14:08:59.752Z,15.38
2023-05-12T14:11:31.821Z,15.42
2023-05-12T14:14:03.684Z,15.37
2023-05-12T14:16:33.998Z,15.44
2023-05-12T14:19:04.347Z,15.45
2023-05-12T14:21:37.528Z,15.52
2023-05-12T14:24:11.628Z,15.46
2023-05-12T14:26:41.823Z,15.37
2023-05-12T14:29:12.129Z,15.34
2023-05-12T14:31:42.468Z,15.25
2023-05-12T14:34:14.883Z,15.32
2023-05-12T14:36:46.462Z,15.26
2023-05-12T14:39:19.617Z,15.26
2023-05-12T14:41:50.259Z,15.19
2023-05-12T14:44:20.479Z,15.13
2023-05-12T14:46:50.973Z,15.07
2023-05-12T14:49:23.708Z,15.02
2023-05-12T14:51:54.151Z,14.97
2023-05-12T14:54:27.217Z,14.87
2023-05-12T14:56:57.428Z,14.86
2023-05-12T14:59:27.694Z,14.95
2023-05-12T15:01:57.929Z,14.95
2023-05-12T15:04:31.026Z,14.93
2023-05-12T15:07:01.254Z,14.96
2023-05-12T15:09:34.014Z,14.99
2023-05-12T15:12:04.261Z,14.95
2023-05-12T15:14:35.706Z,14.89
2023-05-12T15:17:08.560Z,14.86
2023-05-12T15:19:40.158Z,14.87
2023-05-12T15:22:10.396Z,14.82
2023-05-12T15:24:46.338Z,14.90
2023-05-12T15:27:16.687Z,14.96
2023-05-12T15:29:49.186Z,15.02
2023-05-12T15:32:19.528Z,14.99
2023-05-12T15:34:49.810Z,15.01
2023-05-12T15:37:20.054Z,14.83
2023-05-12T15:39:54.119Z,15.23
2023-05-12T15:42:32.346Z,15.21
2023-05-12T15:45:03.278Z,15.35
2023-05-12T15:47:34.348Z,15.58
2023-05-12T15:50:05.053Z,15.56
2023-05-12T15:52:35.566Z,15.60
2023-05-12T15:55:13.525Z,15.67
2023-05-12T15:57:44.063Z,15.67
2023-05-12T16:00:16.185Z,15.63
2023-05-12T16:02:47.159Z,15.65
2023-05-12T16:05:20.698Z,15.74
2023-05-12T16:07:51.214Z,15.74
2023-05-12T16:10:27.208Z,15.70
2023-05-12T16:12:57.516Z,15.62
2023-05-12T16:15:27.726Z,15.61
2023-05-12T16:18:00.248Z,15.62
2023-05-12T16:20:30.514Z,15.61
2023-05-12T16:23:00.729Z,15.74
2023-05-12T16:25:33.572Z,15.73
2023-05-12T16:28:04.003Z,15.80
2023-05-12T16:30:37.800Z,16.00
2023-05-12T16:33:09.198Z,16.19
2023-05-12T16:35:39.789Z,16.28
2023-05-12T16:38:13.721Z,16.24
2023-05-12T16:40:46.549Z,16.08
2023-05-12T16:43:18.991Z,16.10
2023-05-12T16:45:49.430Z,16.01
2023-05-12T16:48:19.781Z,15.77
2023-05-12T16:50:50.006Z,15.63
2023-05-12T16:53:20.174Z,15.54
2023-05-12T16:55:52.952Z,15.54
2023-05-12T16:58:23.548Z,15.48
2023-05-12T17:00:56.642Z,15.34
2023-05-12T17:03:27.003Z,15.20
2023-05-12T17:05:57.407Z,15.21
2023-05-12T17:08:27.721Z,15.06
2023-05-12T17:11:01.016Z,14.96
2023-05-12T17:13:34.044Z,14.89
2023-05-12T17:16:04.651Z,14.67
2023-05-12T17:19:13.615Z,14.69
2023-05-12T17:21:25.667Z,14.59
2023-05-12T17:23:55.999Z,14.57
2023-05-12T17:26:29.957Z,14.44
2023-05-12T17:29:03.747Z,14.21
2023-05-12T17:31:34.126Z,14.22
2023-05-12T17:34:04.367Z,14.40
2023-05-12T17:36:34.539Z,14.40
2023-05-12T17:39:05.384Z,14.33
2023-05-12T17:41:41.312Z,14.27
2023-05-12T17:44:11.824Z,14.17
2023-05-12T17:46:42.103Z,14.18
2023-05-12T17:49:12.492Z,14.13
2023-05-12T17:51:43.326Z,14.13
2023-05-12T17:54:13.769Z,14.15
2023-05-12T17:56:48.400Z,13.99
2023-05-12T17:59:18.619Z,13.95
2023-05-12T18:01:49.023Z,13.81
2023-05-12T18:04:19.680Z,13.97
2023-05-12T18:06:51.372Z,13.93
2023-05-12T18:09:26.111Z,13.88
2023-05-12T18:11:59.659Z,13.78
2023-05-12T18:14:30.861Z,13.80
2023-05-12T18:17:01.159Z,13.78
2023-05-12T18:19:31.697Z,13.74
2023-05-12T18:22:02.320Z,13.66
2023-05-12T18:24:34.848Z,13.72
2023-05-12T18:27:08.934Z,13.62
2023-05-12T18:29:39.128Z,13.66
2023-05-12T18:32:09.358Z,13.68
2023-05-12T18:34:41.972Z,13.71
2023-05-12T18:37:17.742Z,13.64
2023-05-12T18:39:48.012Z,13.58
2023-05-12T18:42:21.023Z,13.41
2023-05-12T18:44:56.165Z,13.45
2023-05-12T18:47:27.694Z,13.58
2023-05-12T18:49:58.069Z,13.55
2023-05-12T18:52:28.287Z,13.38
2023-05-12T18:54:58.727Z,13.55
2023-05-12T18:57:31.594Z,13.45
2023-05-12T19:00:04.005Z,13.54
2023-05-12T19:02:34.875Z,13.59
2023-05-12T19:05:04.918Z,13.56
2023-05-12T19:07:35.508Z,13.57
2023-05-12T19:10:05.716Z,13.55
2023-05-12T19:12:38.665Z,13.57
2023-05-12T19:15:12.571Z,13.59
2023-05-12T19:17:42.988Z,13.60
2023-05-12T19:20:14.451Z,13.56
2023-05-12T19:22:45.494Z,13.55
2023-05-12T19:25:18.084Z,13.50
2023-05-12T19:27:51.174Z,13.46
2023-05-12T19:30:22.318Z,13.44
2023-05-12T19:32:52.900Z,13.46
2023-05-12T19:35:23.652Z,13.51
2023-05-12T19:37:54.617Z,13.41
2023-05-12T19:40:24.830Z,13.36
2023-05-12T19:43:03.530Z,13.38
2023-05-12T19:45:34.226Z,13.14
2023-05-12T19:48:04.782Z,13.22
2023-05-12T19:50:35.550Z,13.30
2023-05-12T19:53:05.884Z,13.22
2023-05-12T19:55:37.528Z,13.03
2023-05-12T19:58:11.550Z,13.32
2023-05-12T20:00:41.859Z,13.26
2023-05-12T20:03:12.453Z,13.33
2023-05-12T20:05:42.756Z,13.38
2023-05-12T20:08:12.994Z,13.44
2023-05-12T20:10:43.307Z,13.50
2023-05-12T20:13:17.376Z,13.49
2023-05-12T20:15:47.802Z,13.55
2023-05-12T20:18:18.124Z,13.61
2023-05-12T20:20:48.378Z,13.65
2023-05-12T20:23:19.186Z,13.54
2023-05-12T20:25:51.997Z,13.62
2023-05-12T20:28:25.403Z,13.61
2023-05-12T20:30:55.645Z,13.59
2023-05-12T20:33:25.927Z,13.49
2023-05-12T20:35:56.179Z,13.42
2023-05-12T20:38:27.276Z,13.39
2023-05-12T20:40:57.145Z,13.35
2023-05-12T20:43:30.211Z,13.35
2023-05-12T20:46:00.670Z,13.38
2023-05-12T20:48:31.089Z,13.37
2023-05-12T20:51:02.167Z,13.35
2023-05-12T20:53:33.796Z,13.24
2023-05-12T20:56:06.730Z,13.36
2023-05-12T20:58:40.603Z,13.32
2023-05-12T21:01:10.962Z,13.26
2023-05-12T21:03:42.005Z,13.29
2023-05-12T21:06:13.093Z,13.25
2023-05-12T21:08:45.701Z,13.27
2023-05-12T21:11:19.829Z,13.26
2023-05-12T21:13:52.927Z,13.25
2023-05-12T21:16:23.264Z,13.29
2023-05-12T21:18:53.552Z,13.34
2023-05-12T21:21:25.028Z,13.33
2023-05-12T21:23:57.775Z,13.33
2023-05-12T21:26:29.906Z,13.27
2023-05-12T21:29:03.785Z,13.25
2023-05-12T21:31:34.139Z,13.23
2023-05-12T21:34:06.548Z,13.10
2023-05-12T21:36:36.778Z,13.11
2023-05-12T21:39:07.624Z,13.10
2023-05-12T21:41:38.674Z,13.05
2023-05-12T21:44:11.562Z,13.00
2023-05-12T21:46:42.859Z,12.97
2023-05-12T21:49:13.198Z,12.90
2023-05-12T21:51:43.532Z,12.82
2023-05-12T21:54:13.752Z,12.88
2023-05-12T21:56:43.882Z,12.85
2023-05-12T21:59:17.287Z,12.74
2023-05-12T22:01:47.633Z,12.63
2023-05-12T22:04:17.906Z,12.60
2023-05-12T22:06:48.184Z,12.60
2023-05-12T22:09:18.701Z,12.69
2023-05-12T22:11:48.893Z,12.71
2023-05-12T22:14:21.940Z,12.65
2023-05-12T22:16:52.133Z,12.65
2023-05-12T22:19:23.124Z,12.62
2023-05-12T22:21:57.720Z,12.57
2023-05-12T22:24:27.911Z,12.51
2023-05-12T22:26:58.282Z,12.62
2023-05-12T22:29:39.511Z,12.55
2023-05-12T22:32:09.697Z,12.55
2023-05-12T22:34:39.893Z,12.56
2023-05-12T22:37:10.062Z,12.55
2023-05-12T22:39:40.195Z,12.63
2023-05-12T22:42:10.737Z,12.71
2023-05-12T22:44:46.565Z,12.74
2023-05-12T22:47:17.780Z,12.76
2023-05-12T22:49:48.126Z,12.78
2023-05-12T22:52:18.379Z,12.74
2023-05-12T22:54:48.582Z,12.75
2023-05-12T22:57:18.901Z,12.73
2023-05-12T22:59:53.999Z,12.79
2023-05-12T23:02:24.333Z,12.81
2023-05-12T23:04:54.596Z,12.72
2023-05-12T23:07:26.581Z,12.85
2023-05-12T23:09:57.347Z,12.91
2023-05-12T23:12:27.582Z,12.91
2023-05-12T23:15:00.370Z,12.85
2023-05-12T23:17:30.799Z,12.96
2023-05-12T23:20:01.084Z,12.99
2023-05-12T23:22:31.296Z,13.01
2023-05-12T23:25:01.488Z,13.05
2023-05-12T23:27:31.711Z,13.07
2023-05-12T23:30:05.655Z,13.12
2023-05-12T23:32:36.334Z,13.13
2023-05-12T23:35:07.046Z,13.14
2023-05-12T23:37:37.291Z,13.23
2023-05-12T23:40:08.940Z,13.27
2023-05-12T23:42:39.190Z,13.29
2023-05-12T23:45:16.140Z,13.20
2023-05-12T23:47:46.304Z,13.28
2023-05-12T23:50:16.712Z,13.29
2023-05-12T23:52:46.898Z,13.22
2023-05-12T23:55:17.550Z,13.08
2023-05-12T23:57:47.797Z,13.20
